Time;durP1;ratioP1;P1;durP2;ratioP2;P2;SDS_P1;SDS_P2;PMS_P1;PMS_P2;Temp;Humidity;BMP_temperature;BMP_pressure;BME280_temperature;BME280_humidity;BME280_pressure;Samples;Min_cycle;Max_cycle;Signal;HPM_P1;HPM_P2
2021/06/10 00:00:11;;;;;;;5.68;5.20;;;;;;;16.97;83.72;101172.56;3548887;40;20056;-51
2021/06/10 00:02:38;;;;;;;6.55;4.97;;;;;;;17.16;83.34;101183.91;3550079;40;20099;-53
2021/06/10 00:05:07;;;;;;;6.20;5.43;;;;;;;17.53;81.38;101177.22;3541226;40;20074;-47
2021/06/10 00:07:35;;;;;;;8.15;5.20;;;;;;;17.33;82.21;101180.53;3548686;40;20242;-52
2021/06/10 00:10:11;;;;;;;6.30;5.43;;;;;;;17.59;82.09;101185.88;3541732;40;20048;-49
2021/06/10 00:12:40;;;;;;;7.07;5.50;;;;;;;16.98;84.15;101174.28;3550284;40;20319;-49
2021/06/10 00:15:10;;;;;;;7.40;5.95;;;;;;;17.16;84.42;101183.06;3547221;40;20066;-48
2021/06/10 00:17:37;;;;;;;5.90;5.35;;;;;;;17.56;81.07;101181.53;3549695;40;20081;-49
2021/06/10 00:20:07;;;;;;;5.90;5.30;;;;;;;17.42;81.21;101186.63;3548255;40;20060;-46
2021/06/10 00:22:34;;;;;;;6.20;5.60;;;;;;;16.86;84.05;101176.78;3548456;40;20479;-48
2021/06/10 00:25:01;;;;;;;7.22;5.32;;;;;;;16.62;84.62;101171.38;3549539;40;20466;-50
2021/06/10 00:27:28;;;;;;;8.57;5.40;;;;;;;16.89;83.51;101173.38;3545146;40;20059;-46
2021/06/10 00:29:55;;;;;;;6.70;5.30;;;;;;;16.82;83.06;101169.84;3551630;40;20053;-49
2021/06/10 00:32:22;;;;;;;6.47;5.38;;;;;;;16.57;83.51;101163.59;3546245;40;20125;-48
2021/06/10 00:34:49;;;;;;;5.43;4.70;;;;;;;16.61;80.38;101164.50;3552495;40;20080;-51
2021/06/10 00:37:16;;;;;;;6.32;4.40;;;;;;;16.45;80.92;101161.75;3546071;40;20419;-49
2021/06/10 00:39:43;;;;;;;6.18;4.78;;;;;;;16.34;82.61;101163.38;3551490;40;20269;-49
2021/06/10 00:42:10;;;;;;;5.25;4.60;;;;;;;16.33;82.25;101156.47;3543272;40;20066;-47
2021/06/10 00:44:38;;;;;;;7.95;4.78;;;;;;;16.23;82.31;101154.66;3549493;40;20448;-51
2021/06/10 00:47:05;;;;;;;5.43;4.75;;;;;;;16.26;82.20;101152.09;3547526;40;20409;-47
2021/06/10 00:49:32;;;;;;;6.88;4.60;;;;;;;16.25;81.88;101152.94;3547525;40;20071;-50
2021/06/10 00:51:59;;;;;;;4.75;4.35;;;;;;;16.21;83.18;101152.03;3549738;40;20059;-48
2021/06/10 00:54:26;;;;;;;6.45;5.30;;;;;;;16.13;83.82;101156.28;3545981;40;20475;-52
2021/06/10 00:56:53;;;;;;;7.03;5.15;;;;;;;16.08;84.01;101154.50;3544614;40;20268;-49
2021/06/10 00:59:20;;;;;;;6.38;4.97;;;;;;;16.04;84.18;101157.06;3546150;40;20118;-53
2021/06/10 01:01:48;;;;;;;5.43;4.97;;;;;;;16.07;83.92;101163.97;3552517;40;20084;-47
2021/06/10 01:04:15;;;;;;;9.95;5.20;;;;;;;16.08;84.73;101160.50;3545851;40;20496;-49
2021/06/10 01:06:54;;;;;;;5.97;5.35;;;;;;;16.12;85.15;101164.00;3550891;40;20085;-47
2021/06/10 01:09:29;;;;;;;5.18;4.78;;;;;;;16.16;84.91;101160.59;3545518;40;20276;-52
2021/06/10 01:12:04;;;;;;;6.80;6.10;;;;;;;15.99;87.83;101169.06;3544497;40;20104;-47
2021/06/10 01:14:54;;;;;;;8.32;6.28;;;;;;;15.88;89.13;101160.31;3546039;40;20088;-46
2021/06/10 01:17:24;;;;;;;8.50;6.40;;;;;;;15.81;90.39;101163.69;3545576;40;20065;-50
2021/06/10 01:20:00;;;;;;;7.28;6.20;;;;;;;15.78;91.07;101161.91;3552312;40;20051;-50
2021/06/10 01:22:30;;;;;;;9.70;6.50;;;;;;;15.85;91.29;101159.41;3545680;40;20094;-51
2021/06/10 01:25:15;;;;;;;9.82;6.60;;;;;;;15.90;90.58;101156.03;3549951;40;20081;-50
2021/06/10 01:27:48;;;;;;;12.90;6.38;;;;;;;15.79;90.98;101153.31;3550379;40;20111;-48
2021/06/10 01:30:23;;;;;;;13.10;6.97;;;;;;;15.73;90.59;101153.25;3543622;40;20437;-48
2021/06/10 01:32:57;;;;;;;11.05;6.88;;;;;;;15.78;90.83;101154.16;3552349;40;20278;-52
2021/06/10 01:35:26;;;;;;;10.13;6.20;;;;;;;15.94;90.35;101156.91;3545221;40;20061;-48
2021/06/10 01:37:56;;;;;;;12.20;6.60;;;;;;;15.82;89.04;101144.75;3544755;40;20062;-49
2021/06/10 01:40:25;;;;;;;10.15;6.28;;;;;;;15.64;89.79;101147.13;3545438;40;20067;-50
2021/06/10 01:42:55;;;;;;;11.70;6.45;;;;;;;15.59;89.67;101141.00;3544402;40;20051;-50
2021/06/10 01:45:23;;;;;;;6.72;5.95;;;;;;;15.64;89.48;101140.22;3545602;40;20057;-46
2021/06/10 01:47:52;;;;;;;9.48;5.82;;;;;;;16.10;88.07;101140.75;3552195;40;20045;-52
2021/06/10 01:50:22;;;;;;;6.20;5.63;;;;;;;16.38;86.32;101136.72;3545663;40;20132;-49
2021/06/10 01:52:52;;;;;;;6.38;5.78;;;;;;;16.50;84.52;101146.28;3552040;40;20331;-46
2021/06/10 01:55:28;;;;;;;6.63;5.93;;;;;;;16.45;85.92;101143.66;3545607;40;20058;-46
2021/06/10 01:57:57;;;;;;;;;;;;;;;16.20;85.69;101145.16;3544493;40;20100;-51
2021/06/10 02:00:25;;;;;;;9.93;6.13;;;;;;;15.48;88.66;101126.25;3544712;40;19944;-49
2021/06/10 02:02:53;;;;;;;9.85;5.68;;;;;;;15.79;87.70;101124.03;3544254;40;20056;-48
2021/06/10 02:05:23;;;;;;;6.93;5.55;;;;;;;15.74;87.21;101129.16;3546002;40;20055;-46
2021/06/10 02:07:50;;;;;;;5.95;5.40;;;;;;;15.56;87.64;101118.56;3551881;40;20380;-46
2021/06/10 02:10:22;;;;;;;7.90;5.00;;;;;;;15.58;86.61;101121.19;3545528;40;20339;-46
2021/06/10 02:12:49;;;;;;;5.78;4.43;;;;;;;15.54;85.69;101123.72;3551660;40;20076;-48
2021/06/10 02:15:18;;;;;;;6.68;5.38;;;;;;;15.25;85.06;101128.53;3545471;40;20444;-49
2021/06/10 02:17:47;;;;;;;6.13;5.13;;;;;;;15.37;83.77;101129.53;3551725;40;20094;-48
2021/06/10 02:20:18;;;;;;;5.65;5.00;;;;;;;15.11;84.72;101130.03;3544287;40;20324;-50
2021/06/10 02:22:45;;;;;;;7.25;4.55;;;;;;;15.36;83.37;101120.06;3551426;40;20337;-51
2021/06/10 02:25:12;;;;;;;6.65;4.88;;;;;;;15.59;82.93;101135.84;3544324;40;20074;-46
2021/06/10 02:27:41;;;;;;;5.07;4.50;;;;;;;15.14;84.27;101119.75;3549796;40;20055;-47
2021/06/10 02:30:10;;;;;;;6.25;5.65;;;;;;;15.31;84.32;101113.97;3546436;40;20086;-49
2021/06/10 02:32:37;;;;;;;6.50;5.28;;;;;;;15.54;83.06;101116.00;3548770;40;20440;-46
2021/06/10 02:35:10;;;;;;;6.20;5.05;;;;;;;15.66;82.02;101114.41;3547354;40;20096;-49
2021/06/10 02:37:41;;;;;;;7.95;5.40;;;;;;;15.74;82.10;101105.06;3548794;40;20156;-53
2021/06/10 02:40:14;;;;;;;5.72;5.15;;;;;;;15.58;83.15;101106.56;3546060;40;20083;-48
2021/06/10 02:42:42;;;;;;;6.55;5.10;;;;;;;15.24;85.28;101100.09;3549623;40;20173;-48
2021/06/10 02:45:10;;;;;;;5.85;5.05;;;;;;;15.87;81.25;101104.34;3545697;40;20058;-51
2021/06/10 02:47:40;;;;;;;6.88;5.63;;;;;;;15.52;84.27;101099.59;3548990;40;20392;-46
2021/06/10 02:50:12;;;;;;;5.80;5.22;;;;;;;15.70;83.31;101101.56;3546506;40;20056;-48
2021/06/10 02:52:46;;;;;;;6.38;4.93;;;;;;;15.87;82.59;101101.75;3549439;40;20067;-49
2021/06/10 02:55:16;;;;;;;5.40;4.90;;;;;;;16.16;80.76;101103.75;3544417;40;20094;-49
2021/06/10 02:57:50;;;;;;;5.32;4.82;;;;;;;16.06;82.11;101099.38;3551051;40;20085;-46
2021/06/10 03:00:19;;;;;;;5.15;4.63;;;;;;;16.41;80.78;101103.13;3543449;40;20047;-49
2021/06/10 03:02:49;;;;;;;6.03;5.05;;;;;;;15.86;83.26;101091.41;3551594;40;20558;-50
2021/06/10 03:05:17;;;;;;;5.18;4.53;;;;;;;15.90;83.28;101093.16;3544945;40;20054;-47
2021/06/10 03:07:45;;;;;;;6.15;5.53;;;;;;;16.06;81.23;101099.38;3551185;40;20055;-52
2021/06/10 03:10:13;;;;;;;5.47;5.00;;;;;;;16.17;80.54;101100.31;3544190;40;20484;-49
2021/06/10 03:12:42;;;;;;;5.50;4.97;;;;;;;16.05;81.82;101101.09;3549661;40;20491;-50
2021/06/10 03:15:11;;;;;;;6.32;4.45;;;;;;;16.15;81.66;101100.31;3545719;40;20326;-46
2021/06/10 03:17:39;;;;;;;5.40;4.90;;;;;;;16.09;81.79;101097.69;3548991;40;20159;-49
2021/06/10 03:20:08;;;;;;;5.55;5.05;;;;;;;16.00;82.91;101098.44;3545995;40;20090;-46
2021/06/10 03:22:36;;;;;;;5.57;5.15;;;;;;;15.92;82.71;101106.97;3547466;40;20054;-48
2021/06/10 03:25:07;;;;;;;5.85;4.93;;;;;;;15.98;82.04;101101.84;3547340;40;20063;-48
2021/06/10 03:27:35;;;;;;;5.65;4.80;;;;;;;16.06;82.29;101102.81;3547691;40;20324;-52
2021/06/10 03:30:04;;;;;;;13.10;4.80;;;;;;;16.23;79.98;101114.19;3548273;40;20092;-49
2021/06/10 03:32:31;;;;;;;8.65;5.03;;;;;;;16.32;78.42;101099.63;3544697;40;20091;-46
2021/06/10 03:34:58;;;;;;;7.07;5.65;;;;;;;16.30;78.57;101104.75;3549185;40;20064;-46
2021/06/10 03:37:26;;;;;;;8.98;5.10;;;;;;;16.09;80.03;101104.56;3544656;40;20102;-49
2021/06/10 03:39:54;;;;;;;5.20;4.72;;;;;;;16.48;78.37;101109.22;3543368;40;20061;-48
2021/06/10 03:42:22;;;;;;;5.88;5.10;;;;;;;16.77;76.51;101107.72;3544849;40;20051;-48
2021/06/10 03:44:50;;;;;;;7.53;5.10;;;;;;;16.37;78.25;101103.09;3551399;40;20080;-46
2021/06/10 03:47:17;;;;;;;5.55;5.05;;;;;;;16.70;76.59;101094.75;3537113;40;20050;-46
2021/06/10 03:49:44;;;;;;;5.05;4.50;;;;;;;16.98;74.45;101090.63;3550825;40;20066;-50
2021/06/10 03:52:11;;;;;;;5.38;4.88;;;;;;;17.22;74.29;101098.53;3549998;40;20440;-49
2021/06/10 03:54:41;;;;;;;6.50;5.10;;;;;;;17.03;77.11;101091.53;3548187;40;20060;-46
2021/06/10 03:57:16;;;;;;;7.47;4.68;;;;;;;16.93;77.83;101090.59;3541917;40;20113;-46
2021/06/10 03:59:44;;;;;;;6.03;4.95;;;;;;;16.65;80.34;101079.19;3554523;40;20631;-50
2021/06/10 04:02:11;;;;;;;5.90;5.30;;;;;;;17.07;79.27;101100.19;3550097;40;20295;-46
2021/06/10 04:04:38;;;;;;;10.38;5.43;;;;;;;16.38;82.61;101091.91;3548557;40;20093;-46
2021/06/10 04:07:06;;;;;;;9.32;5.50;;;;;;;16.33;83.08;101085.84;3546394;40;20468;-46
2021/06/10 04:09:33;;;;;;;5.28;4.78;;;;;;;16.63;82.06;101086.06;3546816;40;20415;-47
2021/06/10 04:12:00;;;;;;;6.00;4.97;;;;;;;16.67;81.40;101094.69;3548157;40;20455;-51
2021/06/10 04:14:27;;;;;;;6.75;5.03;;;;;;;16.46;82.78;101098.00;3548822;40;20055;-51
2021/06/10 04:16:54;;;;;;;6.18;5.35;;;;;;;16.84;81.31;101090.56;3543838;40;20338;-49
2021/06/10 04:19:21;;;;;;;5.43;4.93;;;;;;;16.94;81.46;101100.09;3546319;40;20070;-48
2021/06/10 04:21:49;;;;;;;5.25;4.75;;;;;;;17.31;80.44;101108.06;3538823;40;20089;-51
2021/06/10 04:24:16;;;;;;;6.57;5.45;;;;;;;17.56;75.60;101117.69;3547698;40;20121;-47
2021/06/10 04:26:43;;;;;;;6.63;5.68;;;;;;;17.61;74.94;101124.56;3551645;40;20496;-49
2021/06/10 04:29:10;;;;;;;10.57;5.15;;;;;;;17.04;77.98;101111.38;3546148;40;20051;-47
2021/06/10 04:31:37;;;;;;;8.82;4.85;;;;;;;17.13;78.42;101113.13;3549521;40;20114;-47
2021/06/10 04:34:04;;;;;;;6.70;4.85;;;;;;;17.51;75.50;101114.19;3548399;40;20352;-46
2021/06/10 04:36:31;;;;;;;6.60;4.85;;;;;;;17.63;76.11;101120.28;3547434;40;20050;-52
2021/06/10 04:38:59;;;;;;;7.00;5.00;;;;;;;17.23;78.22;101118.38;3549417;40;20064;-51
2021/06/10 04:41:26;;;;;;;6.80;4.95;;;;;;;16.93;80.53;101118.22;3544820;40;20419;-49
2021/06/10 04:43:55;;;;;;;7.88;5.40;;;;;;;17.61;76.41;101121.97;3545564;40;20063;-53
2021/06/10 04:46:22;;;;;;;6.22;5.13;;;;;;;17.38;77.31;101129.66;3546368;40;20107;-47
2021/06/10 04:48:49;;;;;;;7.07;5.40;;;;;;;17.55;78.23;101123.69;3550510;40;20060;-47
2021/06/10 04:51:16;;;;;;;5.90;5.40;;;;;;;17.45;77.49;101124.53;3545787;40;20063;-49
2021/06/10 04:53:46;;;;;;;5.53;4.90;;;;;;;17.93;76.90;101133.34;3551800;40;20472;-46
2021/06/10 04:56:14;;;;;;;6.97;4.90;;;;;;;17.50;78.57;101120.22;3544979;40;20059;-46
2021/06/10 04:58:44;;;;;;;5.35;4.85;;;;;;;17.99;77.09;101116.97;3552346;40;20069;-46
2021/06/10 05:01:11;;;;;;;8.23;5.70;;;;;;;18.04;76.83;101123.03;3544882;40;20138;-48
2021/06/10 05:03:38;;;;;;;6.88;5.43;;;;;;;18.23;75.75;101117.00;3549694;40;20054;-50
2021/06/10 05:06:08;;;;;;;9.00;5.70;;;;;;;18.11;76.45;101124.75;3547930;40;20071;-46
2021/06/10 05:08:35;;;;;;;5.75;5.10;;;;;;;18.23;75.30;101124.78;3548661;40;20478;-46
2021/06/10 05:11:02;;;;;;;5.07;4.57;;;;;;;18.29;75.57;101123.91;3552282;40;20060;-54
2021/06/10 05:13:29;;;;;;;6.97;4.68;;;;;;;18.39;74.79;101120.44;3544315;40;20062;-48
2021/06/10 05:15:57;;;;;;;6.35;4.88;;;;;;;18.48;74.50;101129.97;3552968;40;20080;-50
2021/06/10 05:18:24;;;;;;;5.88;5.03;;;;;;;18.52;74.65;101132.56;3547461;40;20066;-47
2021/06/10 05:20:51;;;;;;;6.53;5.93;;;;;;;18.85;73.30;101130.84;3543888;40;20517;-50
2021/06/10 05:23:18;;;;;;;10.40;6.32;;;;;;;18.76;73.56;101136.03;3550250;40;20059;-48
2021/06/10 05:25:45;;;;;;;9.40;6.38;;;;;;;18.97;73.92;101136.03;3550523;40;20140;-50
2021/06/10 05:28:13;;;;;;;9.48;6.68;;;;;;;19.07;74.52;101136.88;3547678;40;20635;-50
2021/06/10 05:30:40;;;;;;;10.85;5.72;;;;;;;19.23;73.68;101129.94;3546335;40;20055;-49
2021/06/10 05:33:07;;;;;;;12.25;7.30;;;;;;;19.36;72.87;101130.72;3553472;40;20035;-51
2021/06/10 05:35:34;;;;;;;7.63;6.28;;;;;;;19.83;70.32;101140.97;3540217;40;20054;-49
2021/06/10 05:38:01;;;;;;;9.20;7.03;;;;;;;19.58;70.94;101140.16;3545004;40;20410;-51
2021/06/10 05:40:29;;;;;;;12.30;6.95;;;;;;;19.85;71.21;101134.00;3552118;40;20365;-49
2021/06/10 05:43:06;;;;;;;6.85;6.22;;;;;;;20.08;69.65;101123.47;3543733;40;20148;-48
2021/06/10 05:45:36;;;;;;;7.25;6.50;;;;;;;20.11;69.44;101133.88;3553651;40;20044;-47
2021/06/10 05:48:06;;;;;;;8.52;6.60;;;;;;;19.75;72.38;101129.75;3544711;40;20059;-46
2021/06/10 05:50:33;;;;;;;8.23;6.47;;;;;;;19.86;72.33;101137.47;3547053;40;20059;-49
2021/06/10 05:53:01;;;;;;;7.82;6.75;;;;;;;19.89;71.93;101137.47;3545688;40;20085;-48
2021/06/10 05:55:29;;;;;;;8.32;7.00;;;;;;;19.90;71.85;101126.19;3543365;40;20064;-49
2021/06/10 05:57:56;;;;;;;7.97;7.18;;;;;;;19.81;72.07;101127.97;3539194;40;20317;-46
2021/06/10 06:00:30;;;;;;;7.53;6.93;;;;;;;20.43;70.63;101135.34;3541881;40;20055;-47
2021/06/10 06:03:01;;;;;;;8.27;7.53;;;;;;;20.95;66.22;101134.94;3540384;40;20085;-49
2021/06/10 06:05:29;;;;;;;7.75;6.95;;;;;;;20.67;69.57;101126.53;3541768;40;20090;-50
2021/06/10 06:07:57;;;;;;;6.85;6.35;;;;;;;21.31;66.95;101125.91;3550152;40;20067;-46
2021/06/10 06:10:24;;;;;;;8.35;7.30;;;;;;;21.33;63.59;101132.81;3536592;40;20106;-45
2021/06/10 06:12:52;;;;;;;8.50;6.72;;;;;;;21.52;64.26;101141.28;3545290;40;20094;-48
2021/06/10 06:15:19;;;;;;;6.97;6.28;;;;;;;21.92;61.61;101139.91;3539096;40;20090;-46
2021/06/10 06:17:47;;;;;;;7.28;6.50;;;;;;;22.46;59.46;101145.19;3545911;40;20067;-47
2021/06/10 06:20:15;;;;;;;6.80;6.13;;;;;;;22.58;59.67;101139.78;3537400;40;20432;-50
2021/06/10 06:22:45;;;;;;;8.82;6.30;;;;;;;22.49;59.08;101138.16;3548243;40;20053;-46
2021/06/10 06:25:13;;;;;;;6.10;5.60;;;;;;;22.71;55.09;101143.03;3536741;40;20042;-46
2021/06/10 06:27:41;;;;;;;7.32;6.22;;;;;;;22.91;54.38;101146.19;3534508;40;20441;-52
2021/06/10 06:30:10;;;;;;;8.18;6.28;;;;;;;23.03;57.33;101143.34;3529791;40;20094;-47
2021/06/10 06:32:38;;;;;;;7.32;6.60;;;;;;;23.13;56.50;101152.75;3548246;40;20078;-47
2021/06/10 06:35:08;;;;;;;7.20;6.53;;;;;;;22.77;57.69;101145.53;3546077;40;20066;-51
2021/06/10 06:37:35;;;;;;;7.60;6.35;;;;;;;22.94;56.91;101140.06;3545675;40;20067;-48
2021/06/10 06:40:04;;;;;;;6.18;5.60;;;;;;;22.39;59.01;101154.88;3547733;40;20076;-51
2021/06/10 06:42:32;;;;;;;6.90;5.50;;;;;;;22.05;61.72;101151.88;3544497;40;20089;-48
2021/06/10 06:45:00;;;;;;;9.15;6.50;;;;;;;21.61;62.33;101155.94;3549118;40;20406;-48
2021/06/10 06:47:27;;;;;;;6.88;6.10;;;;;;;21.82;61.44;101158.28;3532486;40;20070;-46
2021/06/10 06:49:54;;;;;;;7.30;6.25;;;;;;;22.35;59.95;101167.09;3545585;40;20087;-49
2021/06/10 06:52:21;;;;;;;8.30;6.70;;;;;;;22.69;58.28;101160.47;3544562;40;20129;-49
2021/06/10 06:54:48;;;;;;;6.80;6.20;;;;;;;22.72;59.10;101165.66;3547703;40;20143;-49
2021/06/10 06:57:15;;;;;;;6.88;6.35;;;;;;;22.79;57.91;101168.13;3539751;40;20090;-45
2021/06/10 06:59:50;;;;;;;6.03;5.38;;;;;;;23.08;53.58;101172.88;3541246;40;20044;-47
2021/06/10 07:02:17;;;;;;;6.25;5.65;;;;;;;22.93;53.01;101173.16;3535635;40;20083;-48
2021/06/10 07:04:45;;;;;;;6.20;5.35;;;;;;;23.15;54.59;101167.53;3538901;40;20078;-47
2021/06/10 07:07:13;;;;;;;9.02;5.95;;;;;;;23.28;53.39;101167.25;3535499;40;20050;-48
2021/06/10 07:09:40;;;;;;;7.70;5.28;;;;;;;23.35;52.31;101161.03;3539790;40;20313;-47
2021/06/10 07:12:07;;;;;;;5.88;5.38;;;;;;;23.84;52.27;101174.88;3536651;40;20057;-49
2021/06/10 07:14:36;;;;;;;6.05;5.60;;;;;;;23.75;51.78;101172.44;3539859;40;20132;-48
2021/06/10 07:17:03;;;;;;;6.47;5.45;;;;;;;23.59;52.04;101174.50;3536216;40;20513;-46
2021/06/10 07:19:30;;;;;;;7.55;5.28;;;;;;;24.22;51.75;101186.25;3537887;40;20066;-52
2021/06/10 07:21:58;;;;;;;6.18;5.68;;;;;;;24.31;51.42;101186.03;3537573;40;20082;-51
2021/06/10 07:24:42;;;;;;;7.90;5.50;;;;;;;24.30;52.14;101179.94;3539663;40;20410;-46
2021/06/10 07:27:10;;;;;;;6.35;5.75;;;;;;;24.40;50.84;101188.47;3536753;40;20063;-46
2021/06/10 07:29:38;;;;;;;7.55;5.30;;;;;;;24.67;50.78;101192.19;3539678;40;20043;-47
2021/06/10 07:32:06;;;;;;;5.78;5.38;;;;;;;25.23;48.08;101194.25;3534020;40;20081;-48
2021/06/10 07:34:34;;;;;;;5.75;5.05;;;;;;;25.29;48.24;101194.13;3536592;40;20043;-48
2021/06/10 07:37:01;;;;;;;5.93;4.90;;;;;;;25.57;47.51;101195.06;3535481;40;20443;-55
2021/06/10 07:39:28;;;;;;;5.55;5.05;;;;;;;26.01;47.59;101197.31;3538949;40;20047;-46
2021/06/10 07:42:12;;;;;;;6.00;5.40;;;;;;;26.22;46.12;101201.06;3541469;40;20040;-48
2021/06/10 07:44:53;;;;;;;5.57;4.90;;;;;;;25.92;45.64;101202.81;3533763;40;20084;-51
2021/06/10 07:47:20;;;;;;;9.05;5.10;;;;;;;25.77;46.82;101199.75;3553723;40;20041;-48
2021/06/10 07:49:48;;;;;;;5.72;5.00;;;;;;;26.52;45.60;101202.72;3539877;40;20051;-51
2021/06/10 07:52:15;;;;;;;6.10;5.60;;;;;;;26.35;44.62;101202.38;3547046;40;20058;-53
2021/06/10 07:54:42;;;;;;;6.43;5.15;;;;;;;26.08;46.24;101197.06;3549804;40;20447;-46
2021/06/10 07:57:13;;;;;;;5.43;5.00;;;;;;;25.85;45.91;101202.16;3537713;40;20538;-49
2021/06/10 07:59:44;;;;;;;5.07;4.78;;;;;;;26.92;45.25;101206.66;3549143;40;20054;-51
2021/06/10 08:02:31;;;;;;;4.63;4.22;;;;;;;27.44;43.28;101196.09;3546119;40;20055;-47
2021/06/10 08:04:59;;;;;;;4.82;4.43;;;;;;;27.55;42.05;101200.06;3548117;40;20081;-51
2021/06/10 08:07:28;;;;;;;5.60;5.10;;;;;;;26.95;42.42;101205.66;3551630;40;20196;-51
2021/06/10 08:09:56;;;;;;;5.60;5.05;;;;;;;27.67;42.87;101204.00;3550222;40;20084;-53
2021/06/10 08:12:23;;;;;;;6.30;4.82;;;;;;;27.68;41.65;101198.66;3554973;40;20056;-49
2021/06/10 08:14:51;;;;;;;7.07;5.10;;;;;;;27.27;40.40;101188.81;3537449;40;20048;-50
2021/06/10 08:17:18;;;;;;;5.22;4.70;;;;;;;28.40;37.79;101197.72;3537279;40;20092;-54
2021/06/10 08:19:45;;;;;;;5.40;4.95;;;;;;;28.52;37.63;101197.22;3547975;40;20070;-51
2021/06/10 08:22:13;;;;;;;7.57;5.63;;;;;;;28.65;37.06;101201.03;3542210;40;20075;-53
2021/06/10 08:24:40;;;;;;;9.27;5.63;;;;;;;28.37;37.45;101203.09;3549641;40;20098;-46
2021/06/10 08:27:08;;;;;;;5.55;5.05;;;;;;;27.91;38.27;101202.25;3549836;40;20066;-48
2021/06/10 08:29:35;;;;;;;4.88;4.55;;;;;;;28.25;38.51;101196.53;3543213;40;20057;-49
2021/06/10 08:32:02;;;;;;;4.75;4.40;;;;;;;28.67;38.04;101199.22;3546604;40;20091;-47
2021/06/10 08:34:30;;;;;;;5.57;4.90;;;;;;;28.65;37.88;101197.56;3538965;40;20055;-47
2021/06/10 08:36:59;;;;;;;6.53;5.82;;;;;;;27.70;38.81;101193.38;3546640;40;20092;-50
2021/06/10 08:39:28;;;;;;;6.07;5.57;;;;;;;28.00;38.80;101195.78;3547549;40;20038;-47
2021/06/10 08:41:55;;;;;;;7.47;5.60;;;;;;;27.87;39.93;101198.00;3547399;40;20055;-50
2021/06/10 08:44:25;;;;;;;8.18;5.90;;;;;;;27.15;40.00;101196.22;3548139;40;20075;-52
2021/06/10 08:46:56;;;;;;;9.38;5.63;;;;;;;27.25;40.05;101193.28;3546882;40;20044;-57
2021/06/10 08:49:27;;;;;;;6.20;5.60;;;;;;;27.72;41.02;101191.56;3547716;40;20066;-48
2021/06/10 08:51:56;;;;;;;5.82;5.22;;;;;;;27.48;40.45;101190.66;3545691;40;20416;-49
2021/06/10 08:54:26;;;;;;;7.10;5.90;;;;;;;27.15;40.72;101190.13;3545510;40;20065;-51
2021/06/10 08:56:56;;;;;;;6.22;5.72;;;;;;;27.03;42.49;101190.50;3542920;40;20396;-48
2021/06/10 08:59:31;;;;;;;6.47;5.47;;;;;;;27.65;41.63;101195.31;3544144;40;20114;-50
2021/06/10 09:01:59;;;;;;;7.45;5.85;;;;;;;26.77;40.91;101197.53;3543031;40;20040;-51
2021/06/10 09:04:30;;;;;;;5.50;5.00;;;;;;;27.56;40.45;101185.13;3542826;40;20077;-48
2021/06/10 09:07:03;;;;;;;9.82;5.35;;;;;;;27.53;40.74;101194.00;3541195;40;20371;-51
2021/06/10 09:09:39;;;;;;;5.68;5.13;;;;;;;27.52;40.19;101188.78;3541161;40;20082;-48
2021/06/10 09:12:11;;;;;;;7.00;5.47;;;;;;;28.19;38.56;101194.13;3540448;40;20062;-49
2021/06/10 09:14:58;;;;;;;8.32;7.47;;;;;;;28.18;38.10;101190.63;3542593;40;20144;-49
2021/06/10 09:17:26;;;;;;;;;;;;;;;27.65;39.56;101185.66;3544369;40;20452;-49
2021/06/10 09:19:53;;;;;;;8.20;6.97;;;;;;;28.05;40.35;101185.91;3544139;40;20933;-50
2021/06/10 09:22:39;;;;;;;10.40;7.72;;;;;;;28.54;38.02;101192.75;3544381;40;20137;-50
2021/06/10 09:25:16;;;;;;;9.07;8.18;;;;;;;28.97;36.74;101195.38;3548377;40;20063;-49
2021/06/10 09:28:01;;;;;;;10.32;8.13;;;;;;;28.84;36.97;101195.00;3544718;40;20043;-49
2021/06/10 09:30:42;;;;;;;11.75;10.65;;;;;;;29.02;35.93;101185.47;3542243;40;20027;-49
2021/06/10 09:33:19;;;;;;;10.18;7.15;;;;;;;29.64;36.79;101190.63;3537141;40;20474;-55
2021/06/10 09:35:52;;;;;;;8.07;7.28;;;;;;;30.38;36.32;101185.38;3534878;40;20401;-46
2021/06/10 09:38:24;;;;;;;9.32;7.97;;;;;;;30.16;34.54;101190.00;3530751;40;20122;-49
2021/06/10 09:41:10;;;;;;;8.68;7.75;;;;;;;29.80;34.89;101187.28;3527333;40;20069;-48
2021/06/10 09:43:48;;;;;;;8.20;6.55;;;;;;;30.57;35.41;101193.25;3530664;40;20055;-48
2021/06/10 09:46:16;;;;;;;8.25;7.45;;;;;;;30.27;35.64;101192.97;3528916;40;20393;-51
2021/06/10 09:49:01;;;;;;;7.70;6.90;;;;;;;31.31;35.46;101197.47;3530494;40;20542;-50
2021/06/10 09:51:29;;;;;;;8.93;8.02;;;;;;;30.48;33.13;101182.28;3527350;40;20463;-46
2021/06/10 09:53:59;;;;;;;6.60;5.90;;;;;;;29.77;35.28;101192.72;3529966;40;20376;-48
2021/06/10 09:56:28;;;;;;;7.85;6.40;;;;;;;30.40;36.28;101187.94;3530090;40;20051;-46
2021/06/10 09:59:04;;;;;;;9.25;8.35;;;;;;;30.85;33.27;101186.59;3537682;40;20064;-52
2021/06/10 10:01:31;;;;;;;7.78;6.43;;;;;;;31.12;33.20;101189.63;3542876;40;20067;-45
2021/06/10 10:04:01;;;;;;;8.63;7.28;;;;;;;30.52;32.82;101192.63;3545033;40;20064;-44
2021/06/10 10:06:34;;;;;;;8.02;7.03;;;;;;;29.68;34.24;101189.56;3542678;40;20382;-49
2021/06/10 10:09:05;;;;;;;7.35;6.65;;;;;;;31.27;33.24;101188.81;3544163;40;20173;-46
2021/06/10 10:11:34;;;;;;;9.43;6.65;;;;;;;31.29;31.03;101189.63;3544979;40;20070;-48
2021/06/10 10:14:07;;;;;;;7.43;6.65;;;;;;;33.25;28.62;101193.53;3547593;40;20319;-49
2021/06/10 10:16:36;;;;;;;7.47;6.53;;;;;;;34.00;27.64;101200.31;3538123;40;20074;-48
2021/06/10 10:19:04;;;;;;;7.13;6.47;;;;;;;34.65;27.07;101204.91;3547777;40;20053;-49
2021/06/10 10:21:35;;;;;;;8.77;7.28;;;;;;;34.59;27.18;101194.69;3540014;40;20083;-45
2021/06/10 10:24:11;;;;;;;8.90;8.15;;;;;;;35.51;25.02;101194.56;3547919;40;20303;-45
2021/06/10 10:26:40;;;;;;;7.50;6.65;;;;;;;36.24;25.26;101192.84;3548364;40;20454;-45
2021/06/10 10:29:13;;;;;;;8.05;6.20;;;;;;;33.52;27.69;101197.16;3542035;40;20043;-48
2021/06/10 10:31:42;;;;;;;7.68;6.95;;;;;;;31.74;29.67;101176.59;3550054;40;20444;-45
2021/06/10 10:34:29;;;;;;;6.63;5.65;;;;;;;31.17;31.24;101183.13;3544152;40;20125;-45
2021/06/10 10:36:57;;;;;;;10.38;6.53;;;;;;;30.41;32.40;101179.06;3543977;40;20080;-49
2021/06/10 10:39:36;;;;;;;7.22;6.53;;;;;;;29.93;33.51;101186.63;3545534;40;20203;-45
2021/06/10 10:42:27;;;;;;;7.80;7.10;;;;;;;32.34;29.34;101192.66;3544441;40;20058;-45
2021/06/10 10:45:11;;;;;;;7.28;6.35;;;;;;;33.61;28.16;101195.72;3543943;40;20267;-50
2021/06/10 10:47:45;;;;;;;7.88;7.05;;;;;;;34.86;25.45;101199.97;3555058;40;20112;-45
2021/06/10 10:50:17;;;;;;;8.05;5.68;;;;;;;36.30;24.17;101195.06;3541897;40;20055;-45
2021/06/10 10:52:53;;;;;;;5.75;5.25;;;;;;;36.78;23.90;101203.00;3543668;40;20052;-45
2021/06/10 10:55:28;;;;;;;6.13;5.53;;;;;;;37.41;22.81;101196.34;3545445;40;20360;-49
2021/06/10 10:58:22;;;;;;;5.60;5.10;;;;;;;37.42;22.15;101195.38;3543883;40;20084;-44
2021/06/10 11:00:57;;;;;;;5.53;4.30;;;;;;;38.46;21.99;101198.44;3551583;40;20055;-45
2021/06/10 11:03:39;;;;;;;4.78;4.38;;;;;;;38.49;21.24;101199.16;3545397;40;20695;-48
2021/06/10 11:06:21;;;;;;;6.90;5.35;;;;;;;39.28;19.78;101197.69;3549767;40;20060;-48
2021/06/10 11:09:11;;;;;;;4.63;4.32;;;;;;;39.26;19.66;101193.47;3552230;40;20340;-51
2021/06/10 11:11:59;;;;;;;5.68;4.60;;;;;;;39.31;20.16;101194.75;3543085;40;20046;-46
2021/06/10 11:14:42;;;;;;;4.88;3.80;;;;;;;39.58;20.08;101190.63;3537271;40;20113;-47
2021/06/10 11:17:14;;;;;;;5.68;5.10;;;;;;;40.90;18.22;101195.50;3541597;40;20048;-51
2021/06/10 11:20:00;;;;;;;5.28;4.88;;;;;;;40.61;18.51;101185.66;3538724;40;20055;-48
2021/06/10 11:22:38;;;;;;;;;;;;;;;40.77;19.01;101192.28;3541262;40;20058;-47
2021/06/10 11:25:30;;;;;;;5.35;4.88;;;;;;;41.06;17.99;101193.09;3533179;40;19942;-46
2021/06/10 11:28:29;;;;;;;4.75;4.32;;;;;;;38.92;19.68;101178.47;3531626;40;20400;-47
2021/06/10 11:31:21;;;;;;;4.55;4.07;;;;;;;38.79;19.76;101175.16;3525351;40;20046;-50
2021/06/10 11:34:32;;;;;;;8.50;5.00;;;;;;;42.22;17.10;101187.06;3537978;40;20135;-44
2021/06/10 11:37:00;;;;;;;5.57;4.95;;;;;;;42.92;15.60;101184.41;3545133;40;20040;-48
2021/06/10 11:39:34;;;;;;;6.45;4.55;;;;;;;41.35;16.75;101174.13;3545779;40;20144;-45